Main page
Satellite images Climate Cyclones Lightning AirportsFAQ Languages Contact Newsletter About
Weather : Europe Africa North America South America Asia Australia-Oceania Others

, Bangkok-Suvarnabhumi, Suvarnabhumi Airport

latitude: , longitude: Thailand, elevation: 13-40-52N m


METAR: VTBS 270030Z 24006KT 200V290 9999 FEW020 BKN100 27/22 Q1005 NOSIG